ADDS METAR Data INFO
IDs: Format: Raw Decoded Include TAF

Data at: 0718 UTC 19 Oct 2017

KHSD 190655Z AUTO 18014G19KT 10SM 18/07 A3006 RMK A01
KHSD 190635Z AUTO 18013G19KT 10SM 18/07 A3005 RMK A01
KHSD 190615Z AUTO 18014KT 10SM CLR 18/07 A3005 RMK A01
KHSD 190555Z AUTO 18014KT 10SM CLR 18/07 A3005 RMK A01
KHSD 190535Z AUTO 18015G20KT 10SM CLR 18/07 A3005 RMK A01
KHSD 190515Z AUTO 18015G22KT 10SM CLR 18/07 A3005 RMK A01
KHSD 190455Z AUTO 18016KT 10SM 18/07 A3005 RMK A01
KHSD 190435Z AUTO 18016KT 10SM CLR 18/08 A3005 RMK A01
KHSD 190415Z AUTO 18015KT 10SM CLR 18/08 A3005 RMK A01
KHSD 190355Z AUTO 18013KT 10SM 18/08 A3005 RMK A01
KHSD 190335Z AUTO 18011G17KT 10SM 19/09 A3006 RMK A01
KHSD 190315Z AUTO 17011KT 10SM CLR 19/09 A3006 RMK A01
KHSD 190255Z AUTO 17010KT 10SM CLR 19/08 A3005 RMK A01
KHSD 190235Z AUTO 17011KT 10SM CLR 20/08 A3005 RMK A01
KHSD 190215Z AUTO 17012KT 10SM CLR 20/09 A3005 RMK A01
KHSD 190155Z AUTO 17011KT 10SM CLR 20/09 A3005 RMK A01
KHSD 190135Z AUTO 17009KT 10SM 20/09 A3005 RMK A01
KHSD 190115Z AUTO 17007KT 10SM CLR 20/09 A3005 RMK A01
KHSD 190055Z AUTO 16006KT 10SM CLR 21/09 A3004 RMK A01
KHSD 190035Z AUTO 16007KT 10SM 21/09 A3003 RMK A01
KHSD 190015Z AUTO 17006KT 10SM 21/09 A3003 RMK A01
KHSD 182355Z AUTO 16006KT 10SM CLR 22/08 A3003 RMK A01
KHSD 182335Z AUTO 15006KT 10SM CLR 23/08 A3003 RMK A01
KHSD 182315Z AUTO 17007G12KT 10SM CLR 25/07 A3002 RMK A01
KHSD 182255Z AUTO 17010G17KT 10SM CLR 26/06 A3002 RMK A01
KHSD 182235Z AUTO 17011KT 10SM CLR 26/06 A3002 RMK A01
KHSD 182215Z AUTO 17010G15KT 10SM 27/07 A3001 RMK A01
KHSD 182155Z AUTO 17009G19KT 10SM 27/06 A3001 RMK A01
KHSD 182135Z AUTO 16013KT 10SM 27/07 A3001 RMK A01
KHSD 182115Z AUTO 16010G21KT 10SM CLR 27/06 A3000 RMK A01
KHSD 182055Z AUTO 18015G22KT 10SM CLR 27/06 A3000 RMK A01
KHSD 182035Z AUTO 18015G22KT 10SM CLR 27/07 A2999 RMK A01
KHSD 182015Z AUTO 19016G24KT 10SM CLR 27/07 A2999 RMK A01
KHSD 181955Z AUTO 18018KT 10SM 27/06 A3000 RMK A01
KHSD 181935Z AUTO 18019G26KT 10SM 26/05 A3001 RMK A01
KHSD 181915Z AUTO 19019G24KT 10SM CLR 27/05 A3001 RMK A01
KHSD 181855Z AUTO 18016G23KT 10SM CLR 26/06 A3003 RMK A01
KHSD 181835Z AUTO 19017G24KT 10SM CLR 26/06 A3003 RMK A01
KHSD 181815Z AUTO 18017G25KT 10SM CLR 25/06 A3005 RMK A01
KHSD 181755Z AUTO 19014G23KT 10SM CLR 25/07 A3006 RMK A01
KHSD 181735Z AUTO 18017G24KT 10SM CLR 24/08 A3007 RMK A01
KHSD 181715Z AUTO 18018KT 10SM CLR 23/07 A3008 RMK A01
KHSD 181655Z AUTO 20014G20KT 10SM 23/08 A3009 RMK A01
KHSD 181635Z AUTO 19016KT 10SM 22/08 A3009 RMK A01
KHSD 181615Z AUTO 19015G21KT 10SM 21/08 A3008 RMK A01
KHSD 181555Z AUTO 19016KT 10SM CLR 20/07 A3009 RMK A01
KHSD 181535Z AUTO 19016G22KT 10SM CLR 19/07 A3008 RMK A01
KHSD 181515Z AUTO 19018KT 10SM CLR 19/07 A3008 RMK A01
KHSD 181455Z AUTO 18017G24KT 10SM CLR 18/07 A3008 RMK A01
KHSD 181435Z AUTO 18014G21KT 10SM CLR 17/07 A3007 RMK A01
KHSD 181415Z AUTO 18014G22KT 10SM 15/07 A3007 RMK A01
KHSD 181355Z AUTO 18015G21KT 10SM 14/07 A3006 RMK A01
KHSD 181335Z AUTO 18015G22KT 10SM 14/07 A3005 RMK A01
KHSD 181315Z AUTO 18014KT 10SM CLR 13/06 A3005 RMK A01
KHSD 181255Z AUTO 18011G17KT 10SM CLR 13/06 A3005 RMK A01
KHSD 181235Z AUTO 18016G21KT 10SM CLR 14/06 A3005 RMK A01
KHSD 181215Z AUTO 18016G22KT 10SM 14/06 A3005 RMK A01
KHSD 181155Z AUTO 18016G21KT 10SM 14/06 A3005 RMK A01
KHSD 181135Z AUTO 18017G24KT 10SM 14/06 A3004 RMK A01
KHSD 181115Z AUTO 18014G21KT 10SM 14/06 A3004 RMK A01
KHSD 181055Z AUTO 18015KT 10SM CLR 13/06 A3005 RMK A01
KHSD 181035Z AUTO 17010KT 10SM CLR 13/06 A3005 RMK A01
KHSD 181015Z AUTO 17010KT 10SM CLR 13/06 A3005 RMK A01
KHSD 180955Z AUTO 17009G15KT 10SM CLR 13/06 A3005 RMK A01
KHSD 180935Z AUTO 17011G16KT 10SM 13/06 A3005 RMK A01
KHSD 180915Z AUTO 17012KT 10SM 13/07 A3005 RMK A01
KHSD 180855Z AUTO 18014KT 10SM CLR 13/07 A3006 RMK A01
KHSD 180835Z AUTO 17013G19KT 10SM CLR 13/07 A3006 RMK A01
KHSD 180815Z AUTO 17016KT 10SM CLR 13/07 A3006 RMK A01
KHSD 180755Z AUTO 18015G21KT 10SM 13/07 A3007 RMK A01
KHSD 180735Z AUTO 17016KT 10SM 14/07 A3007 RMK A01
KHSD 180715Z AUTO 17013KT 10SM CLR 14/07 A3007 RMK A01
KHSD 180655Z AUTO 17013G20KT 10SM CLR 14/07 A3007 RMK A01
KHSD 180635Z AUTO 17014G19KT 10SM CLR 14/07 A3008 RMK A01
KHSD 180615Z AUTO 17012KT 10SM CLR 14/07 A3008 RMK A01
KHSD 180555Z AUTO 17013G19KT 10SM CLR 15/07 A3008 RMK A01
KHSD 180535Z AUTO 17013KT 10SM 15/07 A3009 RMK A01
KHSD 180515Z AUTO 17015KT 10SM CLR 15/07 A3010 RMK A01
KHSD 180455Z AUTO 17014G19KT 10SM CLR 15/06 A3010 RMK A01
KHSD 180435Z AUTO 18015KT 10SM CLR 15/06 A3010 RMK A01
KHSD 180415Z AUTO 18012KT 10SM CLR 16/06 A3011 RMK A01
KHSD 180355Z AUTO 18010G15KT 10SM CLR 16/07 A3011 RMK A01
KHSD 180335Z AUTO 16009KT 10SM CLR 16/07 A3011 RMK A01
KHSD 180315Z AUTO 16008KT 10SM CLR 16/08 A3011 RMK A01
KHSD 180255Z AUTO 16008KT 10SM CLR 16/08 A3011 RMK A01
KHSD 180235Z AUTO 17008KT 10SM CLR 17/08 A3011 RMK A01
KHSD 180215Z AUTO 16006KT 10SM CLR 17/08 A3010 RMK A01
KHSD 180155Z AUTO 15006KT 10SM 17/08 A3010 RMK A01
KHSD 180135Z AUTO 15006KT 10SM 17/08 A3010 RMK A01
KHSD 180115Z AUTO 15007KT 10SM 16/08 A3010 RMK A01
KHSD 180055Z AUTO 15006KT 10SM 17/07 A3010 RMK A01
KHSD 180035Z AUTO 15006KT 10SM CLR 18/08 A3010 RMK A01
KHSD 180015Z AUTO 16006KT 10SM CLR 19/07 A3010 RMK A01
KHSD 172355Z AUTO 16006KT 10SM 20/07 A3009 RMK A01
KHSD 172335Z AUTO 16008KT 10SM 21/06 A3010 RMK A01
KHSD 172315Z AUTO 16007KT 10SM 22/06 A3009 RMK A01
KHSD 172255Z AUTO 17010KT 10SM CLR 22/06 A3009 RMK A01
KHSD 172235Z AUTO 19011G16KT 10SM CLR 23/06 A3010 RMK A01
KHSD 172215Z AUTO 18010KT 10SM CLR 23/06 A3011 RMK A01
KHSD 172155Z AUTO 18013G19KT 10SM 23/06 A3011 RMK A01
KHSD 172135Z AUTO 18014KT 10SM CLR 23/06 A3012 RMK A01
KHSD 172115Z AUTO 21013KT 10SM 23/06 A3012 RMK A01
KHSD 172055Z AUTO 19011G16KT 10SM CLR 23/06 A3013 RMK A01
KHSD 172035Z AUTO 17009G14KT 10SM CLR 23/06 A3013 RMK A01
KHSD 172015Z AUTO 17013KT 10SM CLR 23/05 A3014 RMK A01
KHSD 171955Z AUTO 21013G19KT 10SM 23/05 A3015 RMK A01
KHSD 171935Z AUTO 19014KT 10SM 22/05 A3016 RMK A01